Mary Esther, Florida
Current Conditions -  °F | °C
As of 5:56 AM on Wednesday 28 Jan 2015 (Local Time) from KQBL Reporting Station
Clear Clear  
Wind Chill: 42°   Ceiling: Unl
Heat Index: 42°   Visibility: 10mi
Dew Point: 34°   Wind: 2mph
Humidity: 71%   Direction: 360°N
Pressure: 30.24"   Gusts: NA
Location:  30.41°N, 86.66°W
Report Text: KQBL 281156Z AUTO 36002KT 10SM CLR 06/01 A3024 RMK AO2 SLP246 T00570009 10097 20051 52019
Loading
Personal Weather Stations






























Interactive Weather Map New forecast layout! Learn more

10-Day Weather Forecast

Advertisements
Track Severe Weather on mobile